sensor_id;sensor_type;location;lat;lon;timestamp;P1;durP1;ratioP1;P2;durP2;ratioP2
19343;SDS011;9808;52.402;16.678;2023-04-10T00:00:31;59.70;;;23.67;;
19343;SDS011;9808;52.402;16.678;2023-04-10T00:02:58;63.97;;;25.57;;
19343;SDS011;9808;52.402;16.678;2023-04-10T00:05:27;61.53;;;23.73;;
19343;SDS011;9808;52.402;16.678;2023-04-10T00:07:54;55.10;;;24.03;;
19343;SDS011;9808;52.402;16.678;2023-04-10T00:10:22;67.27;;;25.27;;
19343;SDS011;9808;52.402;16.678;2023-04-10T00:12:51;64.20;;;27.67;;
19343;SDS011;9808;52.402;16.678;2023-04-10T00:15:19;67.10;;;25.03;;
19343;SDS011;9808;52.402;16.678;2023-04-10T00:17:46;53.77;;;22.27;;
19343;SDS011;9808;52.402;16.678;2023-04-10T00:20:15;60.03;;;23.83;;
19343;SDS011;9808;52.402;16.678;2023-04-10T00:22:43;74.70;;;27.17;;
19343;SDS011;9808;52.402;16.678;2023-04-10T00:25:10;72.47;;;29.63;;
19343;SDS011;9808;52.402;16.678;2023-04-10T00:27:37;74.63;;;28.63;;
19343;SDS011;9808;52.402;16.678;2023-04-10T00:30:05;69.77;;;27.10;;
19343;SDS011;9808;52.402;16.678;2023-04-10T00:32:32;73.60;;;28.10;;
19343;SDS011;9808;52.402;16.678;2023-04-10T00:34:59;72.00;;;27.43;;
19343;SDS011;9808;52.402;16.678;2023-04-10T00:37:27;67.63;;;27.47;;
19343;SDS011;9808;52.402;16.678;2023-04-10T00:39:54;64.27;;;26.63;;
19343;SDS011;9808;52.402;16.678;2023-04-10T00:42:21;71.87;;;26.53;;
19343;SDS011;9808;52.402;16.678;2023-04-10T00:44:48;68.30;;;25.77;;
19343;SDS011;9808;52.402;16.678;2023-04-10T00:47:16;59.33;;;22.70;;
19343;SDS011;9808;52.402;16.678;2023-04-10T00:49:43;48.40;;;20.27;;
19343;SDS011;9808;52.402;16.678;2023-04-10T00:52:11;39.73;;;19.53;;
19343;SDS011;9808;52.402;16.678;2023-04-10T00:54:38;42.90;;;18.80;;
19343;SDS011;9808;52.402;16.678;2023-04-10T00:57:06;60.10;;;20.47;;
19343;SDS011;9808;52.402;16.678;2023-04-10T00:59:33;50.57;;;20.03;;
19343;SDS011;9808;52.402;16.678;2023-04-10T01:02:01;59.90;;;21.43;;
19343;SDS011;9808;52.402;16.678;2023-04-10T01:04:29;52.03;;;21.93;;
19343;SDS011;9808;52.402;16.678;2023-04-10T01:06:58;89.87;;;26.43;;
19343;SDS011;9808;52.402;16.678;2023-04-10T01:17:21;80.87;;;25.90;;
19343;SDS011;9808;52.402;16.678;2023-04-10T01:22:17;79.13;;;25.87;;
19343;SDS011;9808;52.402;16.678;2023-04-10T01:25:03;67.97;;;26.03;;
19343;SDS011;9808;52.402;16.678;2023-04-10T01:30:21;74.57;;;23.17;;
19343;SDS011;9808;52.402;16.678;2023-04-10T01:32:48;53.47;;;19.50;;
19343;SDS011;9808;52.402;16.678;2023-04-10T01:35:18;60.63;;;18.97;;
19343;SDS011;9808;52.402;16.678;2023-04-10T01:37:45;65.90;;;18.20;;
19343;SDS011;9808;52.402;16.678;2023-04-10T01:40:14;50.77;;;17.50;;
19343;SDS011;9808;52.402;16.678;2023-04-10T01:42:47;39.53;;;16.37;;
19343;SDS011;9808;52.402;16.678;2023-04-10T01:45:16;45.70;;;16.50;;
19343;SDS011;9808;52.402;16.678;2023-04-10T01:47:44;55.10;;;16.87;;
19343;SDS011;9808;52.402;16.678;2023-04-10T01:50:11;47.90;;;16.47;;
19343;SDS011;9808;52.402;16.678;2023-04-10T01:52:39;79.33;;;17.83;;
19343;SDS011;9808;52.402;16.678;2023-04-10T01:55:07;47.17;;;16.87;;
19343;SDS011;9808;52.402;16.678;2023-04-10T01:57:35;64.93;;;18.43;;
19343;SDS011;9808;52.402;16.678;2023-04-10T02:00:03;36.77;;;16.33;;
19343;SDS011;9808;52.402;16.678;2023-04-10T02:02:31;43.90;;;16.43;;
19343;SDS011;9808;52.402;16.678;2023-04-10T02:04:59;65.10;;;17.33;;
19343;SDS011;9808;52.402;16.678;2023-04-10T02:07:41;64.23;;;15.57;;
19343;SDS011;9808;52.402;16.678;2023-04-10T02:12:40;33.93;;;15.50;;
19343;SDS011;9808;52.402;16.678;2023-04-10T02:15:11;42.13;;;15.80;;
19343;SDS011;9808;52.402;16.678;2023-04-10T02:17:39;47.20;;;16.43;;
19343;SDS011;9808;52.402;16.678;2023-04-10T02:20:07;50.07;;;15.93;;
19343;SDS011;9808;52.402;16.678;2023-04-10T02:22:34;37.77;;;15.93;;
19343;SDS011;9808;52.402;16.678;2023-04-10T02:25:03;45.83;;;17.03;;
19343;SDS011;9808;52.402;16.678;2023-04-10T02:27:32;33.90;;;17.57;;
19343;SDS011;9808;52.402;16.678;2023-04-10T02:30:02;39.33;;;17.27;;
19343;SDS011;9808;52.402;16.678;2023-04-10T02:32:30;35.67;;;17.13;;
19343;SDS011;9808;52.402;16.678;2023-04-10T02:34:59;45.07;;;17.17;;
19343;SDS011;9808;52.402;16.678;2023-04-10T02:37:27;37.30;;;17.00;;
19343;SDS011;9808;52.402;16.678;2023-04-10T02:39:54;40.93;;;16.97;;
19343;SDS011;9808;52.402;16.678;2023-04-10T02:42:22;39.60;;;15.67;;
19343;SDS011;9808;52.402;16.678;2023-04-10T02:44:49;55.17;;;16.60;;
19343;SDS011;9808;52.402;16.678;2023-04-10T02:47:16;39.60;;;16.80;;
19343;SDS011;9808;52.402;16.678;2023-04-10T02:49:44;41.63;;;16.27;;
19343;SDS011;9808;52.402;16.678;2023-04-10T02:55:05;31.87;;;15.10;;
19343;SDS011;9808;52.402;16.678;2023-04-10T02:57:39;33.67;;;15.07;;
19343;SDS011;9808;52.402;16.678;2023-04-10T03:00:09;34.57;;;13.67;;
19343;SDS011;9808;52.402;16.678;2023-04-10T03:02:54;43.13;;;14.50;;
19343;SDS011;9808;52.402;16.678;2023-04-10T03:05:42;29.67;;;13.53;;
19343;SDS011;9808;52.402;16.678;2023-04-10T03:08:19;30.10;;;13.27;;
19343;SDS011;9808;52.402;16.678;2023-04-10T03:14:11;28.77;;;14.20;;
19343;SDS011;9808;52.402;16.678;2023-04-10T03:16:44;33.97;;;14.97;;
19343;SDS011;9808;52.402;16.678;2023-04-10T03:19:13;33.23;;;14.23;;
19343;SDS011;9808;52.402;16.678;2023-04-10T03:21:56;35.23;;;13.00;;
19343;SDS011;9808;52.402;16.678;2023-04-10T03:24:37;37.13;;;13.57;;
19343;SDS011;9808;52.402;16.678;2023-04-10T03:27:21;34.50;;;13.70;;
19343;SDS011;9808;52.402;16.678;2023-04-10T03:29:58;27.50;;;13.60;;
19343;SDS011;9808;52.402;16.678;2023-04-10T03:32:28;34.13;;;12.93;;
19343;SDS011;9808;52.402;16.678;2023-04-10T03:35:08;34.73;;;14.10;;
19343;SDS011;9808;52.402;16.678;2023-04-10T03:37:38;25.23;;;13.47;;
19343;SDS011;9808;52.402;16.678;2023-04-10T03:40:12;51.73;;;14.50;;
19343;SDS011;9808;52.402;16.678;2023-04-10T03:42:44;61.93;;;13.90;;
19343;SDS011;9808;52.402;16.678;2023-04-10T03:45:22;29.33;;;13.27;;
19343;SDS011;9808;52.402;16.678;2023-04-10T03:47:54;26.30;;;13.90;;
19343;SDS011;9808;52.402;16.678;2023-04-10T03:50:36;24.60;;;13.57;;
19343;SDS011;9808;52.402;16.678;2023-04-10T03:53:37;39.50;;;14.13;;
19343;SDS011;9808;52.402;16.678;2023-04-10T03:56:24;35.27;;;12.53;;
19343;SDS011;9808;52.402;16.678;2023-04-10T03:58:59;24.47;;;12.97;;
19343;SDS011;9808;52.402;16.678;2023-04-10T04:01:36;24.90;;;12.57;;
19343;SDS011;9808;52.402;16.678;2023-04-10T04:04:15;28.17;;;12.37;;
19343;SDS011;9808;52.402;16.678;2023-04-10T04:06:52;32.87;;;12.67;;
19343;SDS011;9808;52.402;16.678;2023-04-10T04:09:20;60.83;;;13.83;;
19343;SDS011;9808;52.402;16.678;2023-04-10T04:14:52;44.70;;;12.47;;
19343;SDS011;9808;52.402;16.678;2023-04-10T04:20:23;46.73;;;12.87;;
19343;SDS011;9808;52.402;16.678;2023-04-10T04:22:53;38.27;;;12.40;;
19343;SDS011;9808;52.402;16.678;2023-04-10T04:25:21;42.67;;;11.67;;
19343;SDS011;9808;52.402;16.678;2023-04-10T04:27:49;44.90;;;13.47;;
19343;SDS011;9808;52.402;16.678;2023-04-10T04:30:16;73.57;;;13.03;;
19343;SDS011;9808;52.402;16.678;2023-04-10T04:32:43;55.23;;;11.80;;
19343;SDS011;9808;52.402;16.678;2023-04-10T04:35:10;58.47;;;12.37;;
19343;SDS011;9808;52.402;16.678;2023-04-10T04:37:38;47.20;;;12.30;;
19343;SDS011;9808;52.402;16.678;2023-04-10T04:40:06;74.40;;;12.67;;
19343;SDS011;9808;52.402;16.678;2023-04-10T04:42:33;50.93;;;11.70;;
19343;SDS011;9808;52.402;16.678;2023-04-10T04:45:01;105.70;;;12.73;;
19343;SDS011;9808;52.402;16.678;2023-04-10T04:47:28;70.60;;;12.57;;
19343;SDS011;9808;52.402;16.678;2023-04-10T04:49:55;33.47;;;11.10;;
19343;SDS011;9808;52.402;16.678;2023-04-10T04:52:22;51.43;;;11.97;;
19343;SDS011;9808;52.402;16.678;2023-04-10T04:54:50;23.93;;;11.00;;
19343;SDS011;9808;52.402;16.678;2023-04-10T04:57:18;38.53;;;11.53;;
19343;SDS011;9808;52.402;16.678;2023-04-10T04:59:45;36.17;;;11.37;;
19343;SDS011;9808;52.402;16.678;2023-04-10T05:02:12;37.50;;;11.33;;
19343;SDS011;9808;52.402;16.678;2023-04-10T05:04:39;33.67;;;11.23;;
19343;SDS011;9808;52.402;16.678;2023-04-10T05:07:07;36.77;;;11.07;;
19343;SDS011;9808;52.402;16.678;2023-04-10T05:09:34;33.00;;;11.07;;
19343;SDS011;9808;52.402;16.678;2023-04-10T05:12:01;28.17;;;10.47;;
19343;SDS011;9808;52.402;16.678;2023-04-10T05:14:29;25.63;;;10.73;;
19343;SDS011;9808;52.402;16.678;2023-04-10T05:16:56;22.83;;;10.40;;
19343;SDS011;9808;52.402;16.678;2023-04-10T05:19:24;22.73;;;11.17;;
19343;SDS011;9808;52.402;16.678;2023-04-10T05:21:51;19.70;;;10.50;;
19343;SDS011;9808;52.402;16.678;2023-04-10T05:24:19;20.20;;;11.87;;
19343;SDS011;9808;52.402;16.678;2023-04-10T05:26:46;22.27;;;12.90;;
19343;SDS011;9808;52.402;16.678;2023-04-10T05:29:13;20.73;;;12.03;;
19343;SDS011;9808;52.402;16.678;2023-04-10T05:31:41;23.50;;;12.73;;
19343;SDS011;9808;52.402;16.678;2023-04-10T05:34:08;21.20;;;12.57;;
19343;SDS011;9808;52.402;16.678;2023-04-10T05:36:35;20.60;;;12.10;;
19343;SDS011;9808;52.402;16.678;2023-04-10T05:39:02;21.97;;;12.23;;
19343;SDS011;9808;52.402;16.678;2023-04-10T05:41:29;21.23;;;12.53;;
19343;SDS011;9808;52.402;16.678;2023-04-10T05:43:57;24.37;;;13.23;;
19343;SDS011;9808;52.402;16.678;2023-04-10T05:46:24;24.20;;;13.53;;
19343;SDS011;9808;52.402;16.678;2023-04-10T05:48:51;23.90;;;14.20;;
19343;SDS011;9808;52.402;16.678;2023-04-10T05:51:19;27.37;;;14.53;;
19343;SDS011;9808;52.402;16.678;2023-04-10T05:53:47;25.43;;;14.07;;
19343;SDS011;9808;52.402;16.678;2023-04-10T05:56:14;26.30;;;15.47;;
19343;SDS011;9808;52.402;16.678;2023-04-10T05:58:41;27.47;;;15.50;;
19343;SDS011;9808;52.402;16.678;2023-04-10T06:01:09;28.13;;;16.03;;
19343;SDS011;9808;52.402;16.678;2023-04-10T06:03:36;28.13;;;16.90;;
19343;SDS011;9808;52.402;16.678;2023-04-10T06:06:06;26.87;;;16.03;;
19343;SDS011;9808;52.402;16.678;2023-04-10T06:08:33;29.20;;;17.00;;
19343;SDS011;9808;52.402;16.678;2023-04-10T06:11:00;28.70;;;16.50;;
19343;SDS011;9808;52.402;16.678;2023-04-10T06:13:28;25.63;;;14.60;;
19343;SDS011;9808;52.402;16.678;2023-04-10T06:15:55;24.87;;;13.83;;
19343;SDS011;9808;52.402;16.678;2023-04-10T06:18:22;25.57;;;15.50;;
19343;SDS011;9808;52.402;16.678;2023-04-10T06:20:50;26.40;;;14.37;;
19343;SDS011;9808;52.402;16.678;2023-04-10T06:23:17;33.23;;;16.97;;
19343;SDS011;9808;52.402;16.678;2023-04-10T06:25:44;26.53;;;15.97;;
19343;SDS011;9808;52.402;16.678;2023-04-10T06:28:11;33.67;;;20.33;;
19343;SDS011;9808;52.402;16.678;2023-04-10T06:30:38;33.53;;;18.40;;
19343;SDS011;9808;52.402;16.678;2023-04-10T06:33:05;40.27;;;21.63;;
19343;SDS011;9808;52.402;16.678;2023-04-10T06:35:33;41.87;;;23.20;;
19343;SDS011;9808;52.402;16.678;2023-04-10T06:38:01;46.77;;;25.20;;
19343;SDS011;9808;52.402;16.678;2023-04-10T06:40:28;46.57;;;25.33;;
19343;SDS011;9808;52.402;16.678;2023-04-10T06:42:57;47.90;;;26.33;;
19343;SDS011;9808;52.402;16.678;2023-04-10T06:45:24;35.23;;;21.80;;
19343;SDS011;9808;52.402;16.678;2023-04-10T06:47:51;38.17;;;21.07;;
19343;SDS011;9808;52.402;16.678;2023-04-10T06:50:19;34.33;;;18.57;;
19343;SDS011;9808;52.402;16.678;2023-04-10T06:52:47;30.87;;;17.43;;
19343;SDS011;9808;52.402;16.678;2023-04-10T06:55:14;32.33;;;17.50;;
19343;SDS011;9808;52.402;16.678;2023-04-10T06:57:42;29.83;;;16.97;;
19343;SDS011;9808;52.402;16.678;2023-04-10T07:00:09;28.07;;;16.20;;
19343;SDS011;9808;52.402;16.678;2023-04-10T07:02:36;24.90;;;14.60;;
19343;SDS011;9808;52.402;16.678;2023-04-10T07:05:04;26.60;;;15.10;;
19343;SDS011;9808;52.402;16.678;2023-04-10T07:07:31;27.27;;;14.67;;
19343;SDS011;9808;52.402;16.678;2023-04-10T07:09:59;28.80;;;14.10;;
19343;SDS011;9808;52.402;16.678;2023-04-10T07:12:26;25.53;;;15.10;;
19343;SDS011;9808;52.402;16.678;2023-04-10T07:14:53;25.10;;;14.27;;
19343;SDS011;9808;52.402;16.678;2023-04-10T07:17:21;25.50;;;14.37;;
19343;SDS011;9808;52.402;16.678;2023-04-10T07:19:48;33.87;;;14.87;;
19343;SDS011;9808;52.402;16.678;2023-04-10T07:22:16;28.23;;;15.57;;
19343;SDS011;9808;52.402;16.678;2023-04-10T07:24:43;27.87;;;14.93;;
19343;SDS011;9808;52.402;16.678;2023-04-10T07:27:10;33.83;;;17.10;;
19343;SDS011;9808;52.402;16.678;2023-04-10T07:29:38;35.33;;;17.57;;
19343;SDS011;9808;52.402;16.678;2023-04-10T07:32:05;41.67;;;19.03;;
19343;SDS011;9808;52.402;16.678;2023-04-10T07:34:32;44.30;;;22.13;;
19343;SDS011;9808;52.402;16.678;2023-04-10T07:36:59;37.80;;;20.50;;
19343;SDS011;9808;52.402;16.678;2023-04-10T07:39:27;47.47;;;23.20;;
19343;SDS011;9808;52.402;16.678;2023-04-10T07:41:54;39.37;;;20.73;;
19343;SDS011;9808;52.402;16.678;2023-04-10T07:44:21;41.73;;;22.10;;
19343;SDS011;9808;52.402;16.678;2023-04-10T07:46:48;46.47;;;21.90;;
19343;SDS011;9808;52.402;16.678;2023-04-10T07:49:17;44.27;;;21.93;;
19343;SDS011;9808;52.402;16.678;2023-04-10T07:51:44;44.17;;;22.73;;
19343;SDS011;9808;52.402;16.678;2023-04-10T07:54:12;45.23;;;22.73;;
19343;SDS011;9808;52.402;16.678;2023-04-10T07:56:39;44.93;;;22.20;;
19343;SDS011;9808;52.402;16.678;2023-04-10T07:59:06;42.33;;;21.27;;
19343;SDS011;9808;52.402;16.678;2023-04-10T08:01:34;45.13;;;22.57;;
19343;SDS011;9808;52.402;16.678;2023-04-10T08:04:01;49.43;;;23.83;;
19343;SDS011;9808;52.402;16.678;2023-04-10T08:06:31;49.87;;;23.40;;
19343;SDS011;9808;52.402;16.678;2023-04-10T08:08:58;45.40;;;22.53;;
19343;SDS011;9808;52.402;16.678;2023-04-10T08:11:28;50.50;;;24.80;;
19343;SDS011;9808;52.402;16.678;2023-04-10T08:13:56;47.33;;;24.83;;
19343;SDS011;9808;52.402;16.678;2023-04-10T08:16:24;52.60;;;25.50;;
19343;SDS011;9808;52.402;16.678;2023-04-10T08:18:52;48.97;;;24.17;;
19343;SDS011;9808;52.402;16.678;2023-04-10T08:21:20;51.77;;;25.40;;
19343;SDS011;9808;52.402;16.678;2023-04-10T08:23:50;47.67;;;25.20;;
19343;SDS011;9808;52.402;16.678;2023-04-10T08:26:17;53.73;;;26.63;;
19343;SDS011;9808;52.402;16.678;2023-04-10T08:28:45;47.07;;;24.43;;
19343;SDS011;9808;52.402;16.678;2023-04-10T08:31:14;49.20;;;24.43;;
19343;SDS011;9808;52.402;16.678;2023-04-10T08:33:41;46.33;;;24.17;;
19343;SDS011;9808;52.402;16.678;2023-04-10T08:36:09;47.30;;;24.70;;
19343;SDS011;9808;52.402;16.678;2023-04-10T08:38:38;40.67;;;22.20;;
19343;SDS011;9808;52.402;16.678;2023-04-10T08:41:05;45.40;;;24.67;;
19343;SDS011;9808;52.402;16.678;2023-04-10T08:43:32;51.00;;;23.80;;
19343;SDS011;9808;52.402;16.678;2023-04-10T08:46:00;42.97;;;22.43;;
19343;SDS011;9808;52.402;16.678;2023-04-10T08:48:38;45.47;;;22.63;;
19343;SDS011;9808;52.402;16.678;2023-04-10T08:51:06;45.17;;;22.87;;
19343;SDS011;9808;52.402;16.678;2023-04-10T08:53:44;46.10;;;24.47;;
19343;SDS011;9808;52.402;16.678;2023-04-10T08:56:12;52.23;;;25.07;;
19343;SDS011;9808;52.402;16.678;2023-04-10T08:58:41;58.07;;;27.10;;
19343;SDS011;9808;52.402;16.678;2023-04-10T09:01:08;49.23;;;24.57;;
19343;SDS011;9808;52.402;16.678;2023-04-10T09:03:39;53.03;;;25.23;;
19343;SDS011;9808;52.402;16.678;2023-04-10T09:06:06;54.13;;;26.20;;
19343;SDS011;9808;52.402;16.678;2023-04-10T09:08:34;54.70;;;24.80;;
19343;SDS011;9808;52.402;16.678;2023-04-10T09:11:01;53.17;;;24.47;;
19343;SDS011;9808;52.402;16.678;2023-04-10T09:13:36;52.33;;;26.00;;
19343;SDS011;9808;52.402;16.678;2023-04-10T09:16:04;61.03;;;27.50;;
19343;SDS011;9808;52.402;16.678;2023-04-10T09:18:43;59.00;;;27.00;;
19343;SDS011;9808;52.402;16.678;2023-04-10T09:21:12;53.70;;;26.90;;
19343;SDS011;9808;52.402;16.678;2023-04-10T09:23:40;53.05;;;26.55;;
19343;SDS011;9808;52.402;16.678;2023-04-10T09:26:29;52.72;;;25.27;;
19343;SDS011;9808;52.402;16.678;2023-04-10T09:31:30;51.65;;;26.05;;
19343;SDS011;9808;52.402;16.678;2023-04-10T09:34:16;54.65;;;27.02;;
19343;SDS011;9808;52.402;16.678;2023-04-10T09:36:53;56.95;;;26.88;;
19343;SDS011;9808;52.402;16.678;2023-04-10T09:39:21;54.15;;;25.58;;
19343;SDS011;9808;52.402;16.678;2023-04-10T09:41:49;56.58;;;25.25;;
19343;SDS011;9808;52.402;16.678;2023-04-10T09:44:38;52.20;;;26.02;;
19343;SDS011;9808;52.402;16.678;2023-04-10T09:49:58;56.15;;;26.58;;
19343;SDS011;9808;52.402;16.678;2023-04-10T09:55:00;57.22;;;28.88;;
19343;SDS011;9808;52.402;16.678;2023-04-10T09:57:28;53.85;;;27.67;;
19343;SDS011;9808;52.402;16.678;2023-04-10T09:59:57;51.80;;;26.77;;
19343;SDS011;9808;52.402;16.678;2023-04-10T10:02:25;51.88;;;25.60;;
19343;SDS011;9808;52.402;16.678;2023-04-10T10:04:55;57.42;;;27.60;;
19343;SDS011;9808;52.402;16.678;2023-04-10T10:07:27;53.95;;;27.67;;
19343;SDS011;9808;52.402;16.678;2023-04-10T10:09:56;52.13;;;24.92;;
19343;SDS011;9808;52.402;16.678;2023-04-10T10:12:43;48.80;;;25.70;;
19343;SDS011;9808;52.402;16.678;2023-04-10T10:20:47;51.60;;;25.50;;
19343;SDS011;9808;52.402;16.678;2023-04-10T10:23:19;51.47;;;25.60;;
19343;SDS011;9808;52.402;16.678;2023-04-10T10:25:48;45.35;;;24.67;;
19343;SDS011;9808;52.402;16.678;2023-04-10T10:28:16;47.92;;;24.48;;
19343;SDS011;9808;52.402;16.678;2023-04-10T10:30:47;48.38;;;23.98;;
19343;SDS011;9808;52.402;16.678;2023-04-10T10:33:15;49.38;;;23.77;;
19343;SDS011;9808;52.402;16.678;2023-04-10T10:35:42;44.47;;;23.63;;
19343;SDS011;9808;52.402;16.678;2023-04-10T10:38:10;47.97;;;23.85;;
19343;SDS011;9808;52.402;16.678;2023-04-10T10:40:41;49.63;;;25.02;;
19343;SDS011;9808;52.402;16.678;2023-04-10T10:43:12;45.58;;;25.48;;
19343;SDS011;9808;52.402;16.678;2023-04-10T10:45:45;49.97;;;25.15;;
19343;SDS011;9808;52.402;16.678;2023-04-10T10:48:14;49.20;;;24.48;;
19343;SDS011;9808;52.402;16.678;2023-04-10T10:50:59;47.65;;;22.40;;
19343;SDS011;9808;52.402;16.678;2023-04-10T10:55:59;39.45;;;21.58;;
19343;SDS011;9808;52.402;16.678;2023-04-10T10:58:49;39.13;;;21.95;;
19343;SDS011;9808;52.402;16.678;2023-04-10T11:01:18;42.67;;;22.35;;
19343;SDS011;9808;52.402;16.678;2023-04-10T11:03:48;37.28;;;20.55;;
19343;SDS011;9808;52.402;16.678;2023-04-10T11:06:19;37.03;;;21.45;;
19343;SDS011;9808;52.402;16.678;2023-04-10T11:08:48;40.15;;;20.75;;
19343;SDS011;9808;52.402;16.678;2023-04-10T11:11:21;42.15;;;20.58;;
19343;SDS011;9808;52.402;16.678;2023-04-10T11:19:02;36.92;;;20.05;;
19343;SDS011;9808;52.402;16.678;2023-04-10T11:21:59;38.63;;;19.92;;
19343;SDS011;9808;52.402;16.678;2023-04-10T11:24:27;34.83;;;18.55;;
19343;SDS011;9808;52.402;16.678;2023-04-10T11:26:54;39.42;;;20.30;;
19343;SDS011;9808;52.402;16.678;2023-04-10T11:31:54;36.67;;;19.52;;
19343;SDS011;9808;52.402;16.678;2023-04-10T11:34:22;34.75;;;20.13;;
19343;SDS011;9808;52.402;16.678;2023-04-10T11:36:49;38.45;;;20.52;;
19343;SDS011;9808;52.402;16.678;2023-04-10T11:39:18;41.05;;;22.50;;
19343;SDS011;9808;52.402;16.678;2023-04-10T11:41:47;40.72;;;21.27;;
19343;SDS011;9808;52.402;16.678;2023-04-10T11:44:15;40.00;;;21.35;;
19343;SDS011;9808;52.402;16.678;2023-04-10T11:46:46;36.33;;;20.63;;
19343;SDS011;9808;52.402;16.678;2023-04-10T11:49:16;37.75;;;21.83;;
19343;SDS011;9808;52.402;16.678;2023-04-10T11:51:44;40.40;;;22.05;;
19343;SDS011;9808;52.402;16.678;2023-04-10T11:54:15;38.33;;;20.88;;
19343;SDS011;9808;52.402;16.678;2023-04-10T11:56:44;40.78;;;21.80;;
19343;SDS011;9808;52.402;16.678;2023-04-10T11:59:11;37.50;;;22.20;;
19343;SDS011;9808;52.402;16.678;2023-04-10T12:01:41;34.63;;;20.00;;
19343;SDS011;9808;52.402;16.678;2023-04-10T12:04:19;34.35;;;19.30;;
19343;SDS011;9808;52.402;16.678;2023-04-10T12:06:55;38.70;;;19.25;;
19343;SDS011;9808;52.402;16.678;2023-04-10T12:09:22;33.60;;;19.67;;
19343;SDS011;9808;52.402;16.678;2023-04-10T12:11:50;37.40;;;20.13;;
19343;SDS011;9808;52.402;16.678;2023-04-10T12:14:19;32.88;;;19.60;;
19343;SDS011;9808;52.402;16.678;2023-04-10T12:16:47;37.45;;;19.95;;
19343;SDS011;9808;52.402;16.678;2023-04-10T12:19:15;34.47;;;18.85;;
19343;SDS011;9808;52.402;16.678;2023-04-10T12:21:43;32.90;;;19.27;;
19343;SDS011;9808;52.402;16.678;2023-04-10T12:24:11;35.47;;;18.52;;
19343;SDS011;9808;52.402;16.678;2023-04-10T12:26:45;42.70;;;21.35;;
19343;SDS011;9808;52.402;16.678;2023-04-10T12:29:13;33.90;;;18.73;;
19343;SDS011;9808;52.402;16.678;2023-04-10T12:31:41;35.05;;;19.45;;
19343;SDS011;9808;52.402;16.678;2023-04-10T12:34:08;37.78;;;21.20;;
19343;SDS011;9808;52.402;16.678;2023-04-10T12:36:36;36.80;;;21.40;;
19343;SDS011;9808;52.402;16.678;2023-04-10T12:39:03;34.67;;;19.33;;
19343;SDS011;9808;52.402;16.678;2023-04-10T12:41:32;33.50;;;17.00;;
19343;SDS011;9808;52.402;16.678;2023-04-10T12:44:10;29.63;;;16.02;;
19343;SDS011;9808;52.402;16.678;2023-04-10T12:46:38;24.63;;;14.35;;
19343;SDS011;9808;52.402;16.678;2023-04-10T12:49:15;27.73;;;15.40;;
19343;SDS011;9808;52.402;16.678;2023-04-10T12:51:47;24.92;;;13.95;;
19343;SDS011;9808;52.402;16.678;2023-04-10T12:56:54;24.00;;;14.77;;
19343;SDS011;9808;52.402;16.678;2023-04-10T12:59:21;20.50;;;12.43;;
19343;SDS011;9808;52.402;16.678;2023-04-10T13:01:49;21.63;;;12.80;;
19343;SDS011;9808;52.402;16.678;2023-04-10T13:04:17;27.95;;;14.18;;
19343;SDS011;9808;52.402;16.678;2023-04-10T13:06:44;20.27;;;11.10;;
19343;SDS011;9808;52.402;16.678;2023-04-10T13:09:12;20.48;;;12.60;;
19343;SDS011;9808;52.402;16.678;2023-04-10T13:11:41;17.25;;;11.05;;
19343;SDS011;9808;52.402;16.678;2023-04-10T13:14:10;23.63;;;11.90;;
19343;SDS011;9808;52.402;16.678;2023-04-10T13:16:38;19.77;;;10.93;;
19343;SDS011;9808;52.402;16.678;2023-04-10T13:19:05;16.90;;;10.02;;
19343;SDS011;9808;52.402;16.678;2023-04-10T13:21:32;17.17;;;10.15;;
19343;SDS011;9808;52.402;16.678;2023-04-10T13:23:59;19.42;;;11.60;;
19343;SDS011;9808;52.402;16.678;2023-04-10T13:26:27;17.95;;;10.65;;
19343;SDS011;9808;52.402;16.678;2023-04-10T13:28:54;17.85;;;10.27;;
19343;SDS011;9808;52.402;16.678;2023-04-10T13:31:21;14.77;;;9.68;;
19343;SDS011;9808;52.402;16.678;2023-04-10T13:33:49;15.20;;;9.20;;
19343;SDS011;9808;52.402;16.678;2023-04-10T13:36:16;20.75;;;11.70;;
19343;SDS011;9808;52.402;16.678;2023-04-10T13:38:43;19.92;;;11.90;;
19343;SDS011;9808;52.402;16.678;2023-04-10T13:41:11;22.25;;;12.95;;
19343;SDS011;9808;52.402;16.678;2023-04-10T13:43:38;21.13;;;12.52;;
19343;SDS011;9808;52.402;16.678;2023-04-10T13:46:05;19.30;;;11.45;;
19343;SDS011;9808;52.402;16.678;2023-04-10T13:48:32;19.15;;;11.20;;
19343;SDS011;9808;52.402;16.678;2023-04-10T13:51:06;20.50;;;11.07;;
19343;SDS011;9808;52.402;16.678;2023-04-10T13:53:34;17.02;;;10.38;;
19343;SDS011;9808;52.402;16.678;2023-04-10T13:56:01;20.15;;;9.73;;
19343;SDS011;9808;52.402;16.678;2023-04-10T13:58:28;19.88;;;10.88;;
19343;SDS011;9808;52.402;16.678;2023-04-10T14:00:57;20.02;;;11.00;;
19343;SDS011;9808;52.402;16.678;2023-04-10T14:03:24;22.98;;;13.05;;
19343;SDS011;9808;52.402;16.678;2023-04-10T14:05:52;25.05;;;15.10;;
19343;SDS011;9808;52.402;16.678;2023-04-10T14:08:20;17.77;;;11.57;;
19343;SDS011;9808;52.402;16.678;2023-04-10T14:10:47;18.33;;;11.52;;
19343;SDS011;9808;52.402;16.678;2023-04-10T14:13:16;21.42;;;14.70;;
19343;SDS011;9808;52.402;16.678;2023-04-10T14:15:43;19.70;;;11.35;;
19343;SDS011;9808;52.402;16.678;2023-04-10T14:18:11;19.20;;;12.23;;
19343;SDS011;9808;52.402;16.678;2023-04-10T14:20:40;21.73;;;12.75;;
19343;SDS011;9808;52.402;16.678;2023-04-10T14:23:07;25.52;;;14.13;;
19343;SDS011;9808;52.402;16.678;2023-04-10T14:25:35;23.13;;;13.60;;
19343;SDS011;9808;52.402;16.678;2023-04-10T14:28:02;22.08;;;12.45;;
19343;SDS011;9808;52.402;16.678;2023-04-10T14:30:29;21.63;;;12.48;;
19343;SDS011;9808;52.402;16.678;2023-04-10T14:32:58;18.55;;;10.32;;
19343;SDS011;9808;52.402;16.678;2023-04-10T14:35:25;14.52;;;9.20;;
19343;SDS011;9808;52.402;16.678;2023-04-10T14:37:52;21.00;;;11.30;;
19343;SDS011;9808;52.402;16.678;2023-04-10T14:40:20;18.67;;;10.77;;
19343;SDS011;9808;52.402;16.678;2023-04-10T14:42:47;22.08;;;11.77;;
19343;SDS011;9808;52.402;16.678;2023-04-10T14:45:15;20.35;;;11.30;;
19343;SDS011;9808;52.402;16.678;2023-04-10T14:47:43;21.02;;;12.20;;
19343;SDS011;9808;52.402;16.678;2023-04-10T14:50:10;18.23;;;10.40;;
19343;SDS011;9808;52.402;16.678;2023-04-10T14:52:38;16.38;;;9.65;;
19343;SDS011;9808;52.402;16.678;2023-04-10T14:55:05;19.77;;;10.80;;
19343;SDS011;9808;52.402;16.678;2023-04-10T14:57:32;19.20;;;10.65;;
19343;SDS011;9808;52.402;16.678;2023-04-10T15:00:01;19.60;;;9.88;;
19343;SDS011;9808;52.402;16.678;2023-04-10T15:02:29;16.85;;;10.15;;
19343;SDS011;9808;52.402;16.678;2023-04-10T15:04:56;19.77;;;10.75;;
19343;SDS011;9808;52.402;16.678;2023-04-10T15:07:23;15.15;;;9.10;;
19343;SDS011;9808;52.402;16.678;2023-04-10T15:09:56;16.02;;;8.35;;
19343;SDS011;9808;52.402;16.678;2023-04-10T15:12:24;14.88;;;7.85;;
19343;SDS011;9808;52.402;16.678;2023-04-10T15:14:51;16.77;;;8.07;;
19343;SDS011;9808;52.402;16.678;2023-04-10T15:17:22;13.82;;;8.43;;
19343;SDS011;9808;52.402;16.678;2023-04-10T15:19:49;15.13;;;9.15;;
19343;SDS011;9808;52.402;16.678;2023-04-10T15:22:16;13.65;;;7.85;;
19343;SDS011;9808;52.402;16.678;2023-04-10T15:24:44;13.02;;;7.65;;
19343;SDS011;9808;52.402;16.678;2023-04-10T15:27:17;10.90;;;6.72;;